createdAt,value
2018-12-14T00:00:19.359Z,0.36
2018-12-14T00:03:02.383Z,0.19
2018-12-14T00:05:45.636Z,0.10
2018-12-14T00:08:28.867Z,0.13
2018-12-14T00:11:13.104Z,0.09
2018-12-14T00:13:55.874Z,0.03
2018-12-14T00:16:38.038Z,-0.04
2018-12-14T00:19:21.287Z,-0.02
2018-12-14T00:22:05.123Z,-0.13
2018-12-14T00:24:47.710Z,-0.18
2018-12-14T00:27:30.930Z,-0.14
2018-12-14T00:30:14.594Z,-0.10
2018-12-14T00:32:58.986Z,-0.12
2018-12-14T00:35:42.342Z,-0.15
2018-12-14T00:38:25.518Z,-0.24
2018-12-14T00:41:10.005Z,-0.20
2018-12-14T00:43:53.899Z,-0.24
2018-12-14T00:46:43.030Z,-0.24
2018-12-14T00:49:25.491Z,-0.08
2018-12-14T00:52:08.158Z,-0.07
2018-12-14T00:54:50.914Z,-0.12
2018-12-14T00:57:34.816Z,-0.21
2018-12-14T01:00:17.940Z,-0.21
2018-12-14T01:03:01.111Z,-0.12
2018-12-14T01:05:44.091Z,-0.18
2018-12-14T01:08:27.448Z,-0.15
2018-12-14T01:11:12.277Z,-0.24
2018-12-14T01:13:55.397Z,-0.27
2018-12-14T01:16:38.847Z,-0.34
2018-12-14T01:19:22.835Z,-0.40
2018-12-14T01:22:06.573Z,-0.51
2018-12-14T01:24:49.419Z,-0.55
2018-12-14T01:27:32.747Z,-0.43
2018-12-14T01:30:16.267Z,-0.55
2018-12-14T01:33:00.007Z,-0.48
2018-12-14T01:35:43.270Z,-0.60
2018-12-14T01:38:25.880Z,-0.56
2018-12-14T01:41:07.988Z,-0.56
2018-12-14T01:43:52.798Z,-0.61
2018-12-14T01:46:36.969Z,-0.54
2018-12-14T01:49:19.847Z,-0.59
2018-12-14T01:52:04.135Z,-0.62
2018-12-14T01:54:46.648Z,-0.41
2018-12-14T01:57:29.143Z,-0.49
2018-12-14T02:00:12.148Z,-0.51
2018-12-14T02:02:55.099Z,-0.58
2018-12-14T02:05:38.296Z,-0.56
2018-12-14T02:08:21.061Z,-0.49
2018-12-14T02:11:03.905Z,-0.57
2018-12-14T02:13:46.710Z,-0.58
2018-12-14T02:16:29.933Z,-0.51
2018-12-14T02:19:13.023Z,-0.56
2018-12-14T02:21:56.240Z,-0.54
2018-12-14T02:24:38.829Z,-0.52
2018-12-14T02:27:21.699Z,-0.49
2018-12-14T02:30:15.155Z,-0.39
2018-12-14T02:32:58.579Z,-0.47
2018-12-14T02:35:42.023Z,-0.46
2018-12-14T02:38:25.440Z,-0.43
2018-12-14T02:41:08.804Z,-0.44
2018-12-14T02:43:52.357Z,-0.40
2018-12-14T02:46:35.025Z,-0.39
2018-12-14T02:49:18.244Z,-0.38
2018-12-14T02:52:01.271Z,-0.31
2018-12-14T02:54:44.707Z,-0.31
2018-12-14T02:57:27.944Z,-0.33
2018-12-14T03:00:11.367Z,-0.32
2018-12-14T03:02:54.000Z,-0.23
2018-12-14T03:05:36.217Z,-0.24
2018-12-14T03:08:19.956Z,-0.13
2018-12-14T03:11:04.172Z,-0.19
2018-12-14T03:13:46.700Z,-0.18
2018-12-14T03:16:29.891Z,-0.18
2018-12-14T03:19:14.063Z,-0.18
2018-12-14T03:21:57.511Z,-0.20
2018-12-14T03:24:40.375Z,-0.17
2018-12-14T03:27:24.431Z,-0.06
2018-12-14T03:30:09.911Z,-0.07
2018-12-14T03:32:53.148Z,-0.09
2018-12-14T03:35:37.335Z,-0.11
2018-12-14T03:38:20.763Z,-0.09
2018-12-14T03:41:04.363Z,-0.06
2018-12-14T03:43:47.536Z,-0.14
2018-12-14T03:46:30.820Z,-0.15
2018-12-14T03:49:14.561Z,-0.04
2018-12-14T03:51:58.408Z,-0.09
2018-12-14T03:54:41.629Z,-0.07
2018-12-14T03:57:24.889Z,-0.04
2018-12-14T04:00:09.872Z,-0.05
2018-12-14T04:02:52.733Z,-0.01
2018-12-14T04:05:35.320Z,-0.11
2018-12-14T04:08:18.175Z,-0.16
2018-12-14T04:11:02.117Z,-0.16
2018-12-14T04:13:44.653Z,-0.17
2018-12-14T04:16:27.885Z,-0.30
2018-12-14T04:19:10.779Z,-0.33
2018-12-14T04:21:53.663Z,-0.24
2018-12-14T04:24:37.116Z,-0.13
2018-12-14T04:27:20.252Z,-0.13
2018-12-14T04:30:04.900Z,-0.12
2018-12-14T04:32:47.440Z,-0.16
2018-12-14T04:35:30.633Z,-0.18
2018-12-14T04:38:13.801Z,-0.15
2018-12-14T04:40:57.115Z,-0.13
2018-12-14T04:43:39.835Z,-0.20
2018-12-14T04:46:23.029Z,-0.22
2018-12-14T04:49:07.075Z,-0.19
2018-12-14T04:51:50.293Z,-0.09
2018-12-14T04:54:33.738Z,0.06
2018-12-14T04:57:16.291Z,0.03
2018-12-14T04:59:59.122Z,0.14
2018-12-14T05:02:42.610Z,0.15
2018-12-14T05:05:25.389Z,0.20
2018-12-14T05:08:07.913Z,0.18
2018-12-14T05:10:50.743Z,0.16
2018-12-14T05:13:32.744Z,0.26
2018-12-14T05:16:16.485Z,0.16
2018-12-14T05:18:59.401Z,0.19
2018-12-14T05:21:43.739Z,0.26
2018-12-14T05:24:26.050Z,0.19
2018-12-14T05:27:08.963Z,0.20
2018-12-14T05:29:52.095Z,0.22
2018-12-14T05:32:34.468Z,0.19
2018-12-14T05:35:17.255Z,0.26
2018-12-14T05:38:01.054Z,0.30
2018-12-14T05:40:46.055Z,0.34
2018-12-14T05:43:28.678Z,0.37
2018-12-14T05:46:11.179Z,0.30
2018-12-14T05:48:54.148Z,0.22
2018-12-14T05:51:37.795Z,0.20
2018-12-14T05:54:21.999Z,0.20
2018-12-14T05:57:05.489Z,0.26
2018-12-14T05:59:48.612Z,0.29
2018-12-14T06:02:31.467Z,0.33
2018-12-14T06:05:14.949Z,0.30
2018-12-14T06:07:57.807Z,0.37
2018-12-14T06:10:40.700Z,0.38
2018-12-14T06:13:23.145Z,0.39
2018-12-14T06:16:08.047Z,0.46
2018-12-14T06:18:51.559Z,0.41
2018-12-14T06:21:34.759Z,0.47
2018-12-14T06:24:17.968Z,0.48
2018-12-14T06:27:00.895Z,0.45
2018-12-14T06:29:44.800Z,0.45
2018-12-14T06:32:28.791Z,0.53
2018-12-14T06:35:11.626Z,0.55
2018-12-14T06:37:54.129Z,0.47
2018-12-14T06:40:38.454Z,0.48
2018-12-14T06:43:21.344Z,0.56
2018-12-14T06:46:04.176Z,0.51
2018-12-14T06:48:48.118Z,0.55
2018-12-14T06:51:30.540Z,0.54
2018-12-14T06:54:12.843Z,0.59
2018-12-14T06:56:55.850Z,0.59
2018-12-14T06:59:38.539Z,0.56
2018-12-14T07:02:21.800Z,0.53
2018-12-14T07:05:04.099Z,0.59
2018-12-14T07:07:46.548Z,0.54
2018-12-14T07:10:29.071Z,0.58
2018-12-14T07:13:11.772Z,0.62
2018-12-14T07:15:55.341Z,0.60
2018-12-14T07:18:40.245Z,0.51
2018-12-14T07:21:22.951Z,0.54
2018-12-14T07:24:05.384Z,0.62
2018-12-14T07:26:48.799Z,0.62
2018-12-14T07:29:32.422Z,0.53
2018-12-14T07:32:15.819Z,0.52
2018-12-14T07:35:02.855Z,0.50
2018-12-14T07:37:46.848Z,0.50
2018-12-14T07:41:05.594Z,0.50
2018-12-14T07:44:11.202Z,0.37
2018-12-14T07:46:56.084Z,0.41
2018-12-14T07:49:40.596Z,0.42
2018-12-14T07:52:23.276Z,0.39
2018-12-14T07:55:06.463Z,0.36
2018-12-14T07:57:50.508Z,0.27
2018-12-14T08:00:33.452Z,0.26
2018-12-14T08:03:17.319Z,0.29
2018-12-14T08:06:00.312Z,0.16
2018-12-14T08:08:43.394Z,0.11
2018-12-14T08:11:26.372Z,0.09
2018-12-14T08:14:09.473Z,0.21
2018-12-14T08:16:56.636Z,0.13
2018-12-14T08:19:48.498Z,0.05
2018-12-14T08:22:32.808Z,0.05
2018-12-14T08:25:20.103Z,0.17
2018-12-14T08:28:15.883Z,0.10
2018-12-14T08:30:59.600Z,0.05
2018-12-14T08:33:42.941Z,0.09
2018-12-14T08:36:26.635Z,-0.01
2018-12-14T08:39:11.048Z,0.13
2018-12-14T08:41:54.900Z,0.15
2018-12-14T08:44:39.139Z,0.16
2018-12-14T08:47:22.510Z,0.09
2018-12-14T08:50:06.963Z,0.08
2018-12-14T08:52:49.895Z,0.01
2018-12-14T08:55:34.567Z,0.06
2018-12-14T08:58:18.172Z,0.17
2018-12-14T09:01:03.198Z,0.10
2018-12-14T09:03:46.844Z,0.23
2018-12-14T09:06:30.563Z,0.32
2018-12-14T09:09:14.576Z,0.38
2018-12-14T09:11:58.399Z,0.40
2018-12-14T09:14:41.336Z,0.43
2018-12-14T09:17:24.951Z,0.49
2018-12-14T09:20:08.484Z,0.39
2018-12-14T09:22:52.779Z,0.60
2018-12-14T09:25:36.246Z,0.61
2018-12-14T09:28:21.466Z,0.62
2018-12-14T09:31:04.381Z,0.62
2018-12-14T09:33:47.079Z,0.61
2018-12-14T09:36:30.491Z,0.55
2018-12-14T09:41:48.157Z,0.60
2018-12-14T09:44:31.760Z,0.62
2018-12-14T09:47:14.765Z,0.62
2018-12-14T09:49:58.430Z,0.63
2018-12-14T09:52:43.105Z,0.72
2018-12-14T09:55:27.094Z,0.80
2018-12-14T09:58:11.345Z,0.72
2018-12-14T10:00:56.712Z,0.71
2018-12-14T10:03:39.698Z,0.63
2018-12-14T10:06:23.341Z,0.73
2018-12-14T10:09:06.927Z,0.75
2018-12-14T10:11:55.098Z,0.88
2018-12-14T10:14:35.468Z,0.93
2018-12-14T10:17:18.595Z,0.82
2018-12-14T10:20:03.035Z,0.94
2018-12-14T10:22:46.183Z,0.85
2018-12-14T10:25:29.211Z,1.00
2018-12-14T10:28:13.084Z,0.99
2018-12-14T10:30:57.436Z,0.96
2018-12-14T10:33:41.585Z,1.13
2018-12-14T10:36:26.303Z,1.08
2018-12-14T10:39:08.506Z,0.98
2018-12-14T10:41:51.239Z,1.05
2018-12-14T10:44:35.124Z,1.20
2018-12-14T10:47:23.203Z,1.18
2018-12-14T10:50:06.084Z,1.20
2018-12-14T10:52:50.644Z,1.12
2018-12-14T10:55:34.244Z,1.24
2018-12-14T10:58:18.139Z,1.36
2018-12-14T11:01:06.328Z,1.18
2018-12-14T11:03:49.336Z,1.30
2018-12-14T11:06:33.992Z,1.27
2018-12-14T11:09:17.684Z,1.37
2018-12-14T11:12:01.154Z,1.27
2018-12-14T11:14:43.466Z,1.47
2018-12-14T11:17:27.746Z,1.25
2018-12-14T11:20:12.856Z,1.49
2018-12-14T11:22:56.267Z,1.46
2018-12-14T11:25:41.032Z,1.43
2018-12-14T11:28:25.560Z,1.50
2018-12-14T11:31:08.587Z,1.42
2018-12-14T11:33:52.512Z,1.48
2018-12-14T11:36:36.068Z,1.58
2018-12-14T11:39:19.173Z,1.76
2018-12-14T11:42:04.117Z,1.86
2018-12-14T11:44:49.594Z,1.64
2018-12-14T11:47:32.961Z,1.63
2018-12-14T11:50:15.875Z,1.52
2018-12-14T11:52:59.639Z,1.62
2018-12-14T11:55:43.621Z,1.54
2018-12-14T11:58:27.082Z,1.42
2018-12-14T12:01:11.715Z,1.65
2018-12-14T12:03:56.080Z,1.49
2018-12-14T12:06:38.780Z,1.70
2018-12-14T12:09:24.640Z,1.65
2018-12-14T12:12:08.308Z,1.70
2018-12-14T12:14:51.683Z,1.64
2018-12-14T12:17:35.738Z,1.54
2018-12-14T12:20:18.820Z,1.60
2018-12-14T12:23:01.636Z,1.75
2018-12-14T12:25:45.236Z,1.89
2018-12-14T12:28:29.413Z,1.60
2018-12-14T12:31:12.328Z,1.69
2018-12-14T12:33:57.208Z,1.70
2018-12-14T12:36:40.831Z,1.63
2018-12-14T12:39:26.453Z,1.68
2018-12-14T12:42:11.811Z,1.70
2018-12-14T12:44:57.175Z,1.80
2018-12-14T12:47:40.803Z,1.98
2018-12-14T12:50:23.229Z,1.75
2018-12-14T12:53:06.670Z,1.58
2018-12-14T12:55:50.157Z,1.57
2018-12-14T12:58:33.135Z,1.67
2018-12-14T13:01:17.499Z,1.62
2018-12-14T13:04:00.941Z,1.65
2018-12-14T13:06:43.494Z,1.59
2018-12-14T13:09:26.639Z,1.57
2018-12-14T13:12:12.423Z,1.56
2018-12-14T13:14:55.201Z,1.64
2018-12-14T13:17:44.246Z,1.61
2018-12-14T13:20:29.653Z,1.71
2018-12-14T13:23:13.523Z,1.71
2018-12-14T13:25:57.048Z,1.59
2018-12-14T13:28:42.442Z,1.57
2018-12-14T13:31:26.996Z,1.58
2018-12-14T13:34:14.550Z,1.59
2018-12-14T13:37:00.984Z,1.67
2018-12-14T13:39:50.083Z,1.61
2018-12-14T13:42:38.604Z,1.64
2018-12-14T13:45:24.633Z,1.64
2018-12-14T13:48:08.685Z,1.65
2018-12-14T13:50:54.692Z,1.66
2018-12-14T13:53:40.421Z,1.71
2018-12-14T13:56:23.736Z,1.73
2018-12-14T13:59:08.938Z,1.73
2018-12-14T14:01:52.446Z,1.71
2018-12-14T14:04:35.923Z,1.64
2018-12-14T14:07:29.775Z,1.66
2018-12-14T14:10:18.386Z,1.69
2018-12-14T14:13:03.930Z,1.70
2018-12-14T14:15:50.835Z,1.62
2018-12-14T14:18:36.766Z,1.65
2018-12-14T14:21:24.847Z,1.56
2018-12-14T14:24:16.357Z,1.69
2018-12-14T14:27:00.114Z,1.58
2018-12-14T14:29:43.229Z,1.56
2018-12-14T14:32:27.847Z,1.54
2018-12-14T14:35:12.861Z,1.57
2018-12-14T14:37:57.682Z,1.52
2018-12-14T14:40:41.911Z,1.48
2018-12-14T14:43:25.702Z,1.48
2018-12-14T14:46:08.831Z,1.46
2018-12-14T14:48:53.104Z,1.51
2018-12-14T14:51:37.328Z,1.47
2018-12-14T14:54:29.666Z,1.48
2018-12-14T14:57:13.136Z,1.45
2018-12-14T14:59:56.322Z,1.55
2018-12-14T15:02:40.270Z,1.46
2018-12-14T15:05:22.603Z,1.45
2018-12-14T15:08:07.012Z,1.41
2018-12-14T15:10:51.921Z,1.43
2018-12-14T15:13:35.226Z,1.48
2018-12-14T15:16:18.766Z,1.41
2018-12-14T15:19:01.281Z,1.49
2018-12-14T15:21:47.055Z,1.49
2018-12-14T15:24:40.827Z,1.45
2018-12-14T15:27:24.604Z,1.50
2018-12-14T15:30:09.123Z,1.43
2018-12-14T15:32:52.759Z,1.40
2018-12-14T15:35:35.993Z,1.43
2018-12-14T15:38:20.139Z,1.35
2018-12-14T15:41:03.941Z,1.40
2018-12-14T15:43:47.455Z,1.46
2018-12-14T15:46:31.461Z,1.33
2018-12-14T15:49:14.873Z,1.35
2018-12-14T15:51:59.469Z,1.37
2018-12-14T15:54:43.644Z,1.33
2018-12-14T15:57:26.327Z,1.29
2018-12-14T16:00:10.472Z,1.33
2018-12-14T16:02:53.020Z,1.30
2018-12-14T16:05:37.484Z,1.35
2018-12-14T16:08:20.357Z,1.36
2018-12-14T16:11:03.109Z,1.40
2018-12-14T16:13:47.196Z,1.42
2018-12-14T16:16:29.950Z,1.47
2018-12-14T16:19:15.060Z,1.41
2018-12-14T16:21:58.109Z,1.36
2018-12-14T16:24:41.557Z,1.32
2018-12-14T16:27:37.915Z,1.30
2018-12-14T16:30:22.012Z,1.34
2018-12-14T16:33:05.556Z,1.43
2018-12-14T16:35:48.497Z,1.37
2018-12-14T16:38:31.359Z,1.43
2018-12-14T16:41:16.576Z,1.36
2018-12-14T16:43:59.126Z,1.31
2018-12-14T16:46:42.937Z,1.37
2018-12-14T16:49:27.923Z,1.34
2018-12-14T16:52:11.240Z,1.32
2018-12-14T16:54:54.948Z,1.34
2018-12-14T16:57:39.307Z,1.32
2018-12-14T17:00:22.124Z,1.38
2018-12-14T17:03:06.221Z,1.26
2018-12-14T17:05:49.626Z,1.30
2018-12-14T17:08:33.495Z,1.33
2018-12-14T17:11:18.503Z,1.32
2018-12-14T17:14:01.400Z,1.36
2018-12-14T17:16:45.344Z,1.35
2018-12-14T17:19:28.272Z,1.22
2018-12-14T17:22:13.129Z,1.28
2018-12-14T17:24:56.576Z,1.24
2018-12-14T17:27:40.907Z,1.26
2018-12-14T17:30:27.602Z,1.25
2018-12-14T17:33:11.476Z,1.33
2018-12-14T17:35:55.224Z,1.28
2018-12-14T17:38:39.906Z,1.21
2018-12-14T17:41:25.013Z,1.34
2018-12-14T17:44:08.267Z,1.35
2018-12-14T17:46:52.619Z,1.25
2018-12-14T17:49:36.836Z,1.32
2018-12-14T17:52:20.218Z,1.27
2018-12-14T17:55:04.471Z,1.18
2018-12-14T17:57:49.028Z,1.23
2018-12-14T18:00:32.044Z,1.33
2018-12-14T18:03:16.323Z,1.17
2018-12-14T18:06:00.107Z,1.26
2018-12-14T18:08:43.816Z,1.18
2018-12-14T18:11:27.692Z,1.26
2018-12-14T18:14:11.255Z,1.18
2018-12-14T18:16:55.771Z,1.20
2018-12-14T18:19:40.856Z,1.18
2018-12-14T18:22:24.276Z,1.26
2018-12-14T18:25:07.348Z,1.31
2018-12-14T18:27:51.124Z,1.25
2018-12-14T18:30:33.900Z,1.27
2018-12-14T18:33:17.928Z,1.28
2018-12-14T18:36:02.387Z,1.19
2018-12-14T18:38:45.031Z,1.16
2018-12-14T18:41:27.932Z,1.08
2018-12-14T18:44:12.174Z,1.15
2018-12-14T18:46:59.034Z,1.11
2018-12-14T18:49:43.696Z,1.16
2018-12-14T18:52:28.121Z,1.16
2018-12-14T18:55:12.027Z,1.11
2018-12-14T18:57:56.112Z,1.12
2018-12-14T19:00:39.500Z,1.14
2018-12-14T19:03:22.433Z,1.16
2018-12-14T19:06:06.763Z,1.18
2018-12-14T19:08:51.392Z,1.21
2018-12-14T19:11:34.703Z,1.16
2018-12-14T19:14:17.976Z,1.18
2018-12-14T19:17:02.486Z,1.19
2018-12-14T19:19:46.572Z,1.19
2018-12-14T19:22:30.354Z,1.22
2018-12-14T19:25:13.286Z,1.15
2018-12-14T19:27:56.408Z,1.16
2018-12-14T19:30:40.842Z,1.18
2018-12-14T19:33:24.098Z,1.17
2018-12-14T19:36:08.848Z,1.23
2018-12-14T19:38:52.195Z,1.17
2018-12-14T19:41:40.099Z,1.12
2018-12-14T19:44:23.945Z,1.17
2018-12-14T19:47:07.432Z,1.11
2018-12-14T19:49:50.695Z,1.22
2018-12-14T19:52:36.392Z,1.19
2018-12-14T19:55:21.874Z,1.15
2018-12-14T19:58:04.792Z,1.15
2018-12-14T20:00:49.031Z,1.17
2018-12-14T20:03:33.108Z,1.20
2018-12-14T20:06:16.324Z,1.22
2018-12-14T20:08:59.643Z,1.08
2018-12-14T20:11:43.377Z,1.11
2018-12-14T20:14:28.523Z,1.13
2018-12-14T20:17:13.235Z,1.18
2018-12-14T20:19:58.811Z,1.09
2018-12-14T20:22:41.489Z,1.06
2018-12-14T20:25:25.443Z,1.01
2018-12-14T20:28:09.145Z,0.94
2018-12-14T20:30:53.001Z,0.96
2018-12-14T20:33:36.773Z,0.97
2018-12-14T20:36:28.214Z,0.96
2018-12-14T20:39:11.016Z,0.94
2018-12-14T20:41:55.092Z,0.90
2018-12-14T20:44:40.726Z,0.93
2018-12-14T20:47:23.961Z,0.89
2018-12-14T20:50:08.671Z,0.93
2018-12-14T20:52:52.791Z,1.06
2018-12-14T20:55:35.917Z,0.96
2018-12-14T20:58:21.321Z,0.93
2018-12-14T21:01:06.913Z,0.91
2018-12-14T21:03:49.481Z,0.96
2018-12-14T21:06:33.520Z,0.93
2018-12-14T21:09:18.639Z,0.92
2018-12-14T21:12:05.841Z,0.91
2018-12-14T21:14:50.952Z,0.89
2018-12-14T21:17:34.781Z,0.92
2018-12-14T21:20:17.527Z,0.91
2018-12-14T21:26:45.252Z,0.92
2018-12-14T21:29:29.582Z,0.92
2018-12-14T21:32:13.115Z,0.85
2018-12-14T21:34:57.205Z,0.86
2018-12-14T21:37:40.288Z,0.87
2018-12-14T21:40:24.939Z,0.93
2018-12-14T21:43:08.305Z,0.90
2018-12-14T21:45:52.254Z,0.92
2018-12-14T21:48:35.579Z,0.90
2018-12-14T21:51:19.546Z,0.86
2018-12-14T21:54:04.295Z,0.89
2018-12-14T21:56:47.181Z,0.86
2018-12-14T21:59:30.054Z,0.85
2018-12-14T22:02:14.032Z,0.86
2018-12-14T22:04:58.618Z,0.87
2018-12-14T22:07:41.649Z,0.90
2018-12-14T22:10:24.405Z,0.92
2018-12-14T22:13:07.579Z,0.87
2018-12-14T22:15:54.960Z,0.90
2018-12-14T22:18:39.044Z,0.89
2018-12-14T22:21:22.221Z,0.90
2018-12-14T22:24:06.764Z,0.85
2018-12-14T22:26:50.812Z,0.85
2018-12-14T22:29:34.638Z,0.89
2018-12-14T22:32:22.865Z,0.83
2018-12-14T22:35:06.072Z,0.84
2018-12-14T22:37:49.836Z,0.85
2018-12-14T22:40:33.617Z,0.80
2018-12-14T22:43:21.990Z,0.82
2018-12-14T22:46:05.195Z,0.80
2018-12-14T22:48:49.582Z,0.84
2018-12-14T22:51:32.308Z,0.82
2018-12-14T22:54:16.969Z,0.79
2018-12-14T22:57:00.525Z,0.79
2018-12-14T22:59:45.082Z,0.82
2018-12-14T23:02:28.164Z,0.81
2018-12-14T23:05:10.782Z,0.82
2018-12-14T23:07:57.144Z,0.82
2018-12-14T23:10:47.996Z,0.96
2018-12-14T23:13:32.500Z,0.81
2018-12-14T23:16:14.993Z,0.81
2018-12-14T23:18:59.625Z,0.80
2018-12-14T23:21:45.223Z,0.81
2018-12-14T23:24:28.154Z,0.83
2018-12-14T23:27:12.434Z,0.79
2018-12-14T23:29:58.674Z,0.79
2018-12-14T23:32:42.916Z,0.80
2018-12-14T23:35:27.474Z,0.74
2018-12-14T23:38:14.644Z,0.80
2018-12-14T23:40:57.441Z,0.79
2018-12-14T23:43:41.992Z,0.83
2018-12-14T23:46:25.168Z,0.83
2018-12-14T23:49:08.457Z,0.84
2018-12-14T23:51:53.693Z,0.82
2018-12-14T23:54:37.467Z,0.86
2018-12-14T23:57:20.927Z,0.90
